Time;durP1;ratioP1;P1;durP2;ratioP2;P2;SDS_P1;SDS_P2;PMS_P1;PMS_P2;Temp;Humidity;BMP_temperature;BMP_pressure;BME280_temperature;BME280_humidity;BME280_pressure;Samples;Min_cycle;Max_cycle;Signal;HPM_P1;HPM_P2
2021/08/11 00:02:21;;;;;;;0.75;0.75;;;22.80;52.50;;;;;;5117344;28;20043;-46
2021/08/11 00:04:46;;;;;;;1.00;0.90;;;22.80;52.50;;;;;;5135977;28;20058;-49
2021/08/11 00:07:12;;;;;;;0.70;0.70;;;22.80;52.50;;;;;;5135715;28;20055;-47
2021/08/11 00:09:38;;;;;;;0.73;0.73;;;22.80;52.50;;;;;;5115044;28;20055;-45
2021/08/11 00:12:04;;;;;;;0.70;0.70;;;22.80;52.50;;;;;;5135313;28;20057;-46
2021/08/11 00:14:30;;;;;;;0.90;0.80;;;22.80;52.60;;;;;;5135521;28;20047;-51
2021/08/11 00:16:55;;;;;;;0.63;0.63;;;22.80;52.60;;;;;;5135580;28;20131;-47
2021/08/11 00:19:21;;;;;;;0.70;0.70;;;22.80;52.60;;;;;;5135165;28;20083;-47
2021/08/11 00:21:47;;;;;;;0.73;0.73;;;22.80;52.60;;;;;;5135539;28;20538;-50
2021/08/11 00:24:13;;;;;;;0.73;0.73;;;22.80;52.70;;;;;;5134833;27;20043;-49
2021/08/11 00:26:38;;;;;;;0.70;0.70;;;22.80;52.60;;;;;;5135473;28;20143;-49
2021/08/11 00:29:04;;;;;;;0.95;0.90;;;22.80;52.70;;;;;;5135071;28;20058;-47
2021/08/11 00:31:30;;;;;;;0.75;0.75;;;22.80;52.70;;;;;;5116845;28;20469;-48
2021/08/11 00:33:56;;;;;;;0.70;0.70;;;22.80;52.70;;;;;;5135323;28;20047;-52
2021/08/11 00:36:21;;;;;;;1.08;0.88;;;22.70;52.60;;;;;;5116978;28;20047;-49
2021/08/11 00:38:47;;;;;;;0.80;0.80;;;22.80;52.70;;;;;;5116538;28;20051;-48
2021/08/11 00:41:15;;;;;;;0.80;0.80;;;22.70;52.70;;;;;;5116690;28;20864;-48
2021/08/11 00:43:42;;;;;;;0.75;0.68;;;22.70;52.70;;;;;;5116578;28;20043;-47
2021/08/11 00:46:11;;;;;;;0.73;0.63;;;22.70;52.70;;;;;;5116619;28;20161;-52
2021/08/11 00:48:38;;;;;;;0.93;0.90;;;22.70;52.70;;;;;;5115507;28;20142;-54
2021/08/11 00:51:05;;;;;;;0.60;0.60;;;22.70;52.70;;;;;;5116672;28;20054;-48
2021/08/11 00:53:33;;;;;;;1.10;0.90;;;22.70;52.70;;;;;;5116508;28;20054;-46
2021/08/11 00:56:00;;;;;;;0.70;0.70;;;22.70;52.80;;;;;;5116408;28;20058;-48
2021/08/11 00:58:27;;;;;;;0.70;0.70;;;22.70;52.80;;;;;;5116242;28;20387;-48
2021/08/11 01:00:56;;;;;;;0.85;0.70;;;22.70;52.80;;;;;;5116755;28;20496;-48
2021/08/11 01:03:23;;;;;;;0.70;0.70;;;22.70;52.80;;;;;;5116582;28;20522;-47
2021/08/11 01:05:53;;;;;;;0.70;0.70;;;22.60;52.80;;;;;;5114752;28;20048;-49
2021/08/11 01:08:21;;;;;;;0.80;0.80;;;22.70;52.90;;;;;;5116134;28;20055;-47
2021/08/11 01:10:48;;;;;;;0.80;0.80;;;22.70;52.90;;;;;;5134700;28;20157;-48
2021/08/11 01:13:15;;;;;;;0.70;0.70;;;22.70;52.90;;;;;;5116637;28;20047;-46
2021/08/11 01:15:45;;;;;;;0.70;0.70;;;22.60;52.90;;;;;;5116233;28;20055;-48
2021/08/11 01:18:19;;;;;;;1.00;0.90;;;22.60;52.90;;;;;;5116810;28;20062;-51
2021/08/11 01:21:25;;;;;;;0.50;0.50;;;22.60;52.90;;;;;;5115439;28;20052;-50
2021/08/11 01:24:18;;;;;;;0.90;0.90;;;22.60;52.90;;;;;;5116476;28;20053;-50
2021/08/11 01:27:15;;;;;;;0.85;0.85;;;22.60;52.90;;;;;;5114992;28;20051;-51
2021/08/11 01:30:05;;;;;;;0.73;0.73;;;22.60;53.00;;;;;;5134265;28;20086;-50
2021/08/11 01:32:48;;;;;;;0.57;0.57;;;22.60;53.00;;;;;;5115851;28;20051;-46
2021/08/11 01:35:18;;;;;;;0.70;0.70;;;22.60;53.00;;;;;;5116267;27;20057;-46
2021/08/11 01:37:49;;;;;;;0.80;0.73;;;22.60;53.00;;;;;;5114534;28;20411;-44
2021/08/11 01:40:21;;;;;;;0.80;0.77;;;22.60;53.00;;;;;;5116347;28;20051;-47
2021/08/11 01:42:50;;;;;;;0.70;0.70;;;22.60;53.00;;;;;;5115920;28;20075;-47
2021/08/11 01:45:20;;;;;;;0.68;0.68;;;22.60;53.10;;;;;;5116015;28;20055;-48
2021/08/11 01:47:58;;;;;;;0.90;0.60;;;22.60;53.10;;;;;;5115107;28;20440;-48
2021/08/11 01:50:28;;;;;;;0.75;0.73;;;22.60;53.10;;;;;;5115787;28;20051;-49
2021/08/11 01:52:56;;;;;;;0.82;0.82;;;22.60;53.10;;;;;;5115583;28;20094;-47
2021/08/11 01:55:23;;;;;;;1.05;0.88;;;22.50;53.10;;;;;;5115517;28;20491;-45
2021/08/11 01:57:52;;;;;;;0.75;0.75;;;22.50;53.10;;;;;;5115270;28;20517;-47
2021/08/11 02:00:24;;;;;;;0.90;0.90;;;22.50;53.10;;;;;;5115784;28;20051;-45
2021/08/11 02:02:50;;;;;;;0.80;0.80;;;22.50;53.20;;;;;;5133832;28;20047;-44
2021/08/11 02:05:24;;;;;;;0.70;0.70;;;22.50;53.10;;;;;;5115966;28;20047;-46
2021/08/11 02:07:51;;;;;;;1.00;0.80;;;22.50;53.20;;;;;;5114062;28;20138;-46
2021/08/11 02:10:18;;;;;;;0.77;0.60;;;22.50;53.20;;;;;;5115904;28;20050;-46
2021/08/11 02:12:45;;;;;;;0.80;0.77;;;22.50;53.20;;;;;;5115671;28;20079;-51
2021/08/11 02:15:12;;;;;;;0.98;0.98;;;22.50;53.30;;;;;;5115251;28;20059;-48
2021/08/11 02:17:39;;;;;;;0.80;0.80;;;22.50;53.30;;;;;;5133751;28;20043;-49
2021/08/11 02:20:08;;;;;;;0.70;0.70;;;22.50;53.30;;;;;;5115529;28;20051;-50
2021/08/11 02:22:35;;;;;;;0.90;0.80;;;22.50;53.30;;;;;;5115393;28;20497;-47
2021/08/11 02:25:03;;;;;;;0.80;0.80;;;22.50;53.30;;;;;;5115112;28;20051;-50
2021/08/11 02:27:35;;;;;;;1.05;0.80;;;22.50;53.30;;;;;;5114795;28;20566;-45
2021/08/11 02:30:10;;;;;;;0.70;0.70;;;22.50;53.30;;;;;;5115048;28;20053;-44
2021/08/11 02:32:59;;;;;;;0.70;0.70;;;22.50;53.30;;;;;;5115153;28;20055;-44
2021/08/11 02:35:38;;;;;;;0.98;0.88;;;22.50;53.40;;;;;;5115022;28;20058;-47
2021/08/11 02:38:20;;;;;;;1.23;0.88;;;22.50;53.40;;;;;;5133446;28;20075;-47
2021/08/11 02:41:01;;;;;;;0.57;0.57;;;22.40;53.30;;;;;;5114883;28;20100;-44
2021/08/11 02:43:57;;;;;;;0.75;0.73;;;22.40;53.30;;;;;;5115144;28;20078;-47
2021/08/11 02:46:25;;;;;;;0.80;0.70;;;22.50;53.40;;;;;;5106821;28;20134;-45
2021/08/11 02:49:01;;;;;;;0.70;0.70;;;22.40;53.40;;;;;;5115555;28;20480;-46
2021/08/11 02:51:31;;;;;;;0.70;0.70;;;22.40;53.40;;;;;;5118536;28;20062;-47
2021/08/11 02:54:02;;;;;;;0.70;0.70;;;22.40;53.40;;;;;;5118731;28;20400;-46
2021/08/11 02:56:28;;;;;;;0.70;0.70;;;22.40;53.40;;;;;;5118906;28;20543;-48
2021/08/11 02:58:54;;;;;;;1.42;0.70;;;22.40;53.50;;;;;;5116657;28;20058;-50
2021/08/11 03:01:20;;;;;;;0.70;0.60;;;22.40;53.50;;;;;;5118238;28;20074;-46
2021/08/11 03:03:46;;;;;;;0.80;0.80;;;22.40;53.50;;;;;;5118227;28;20043;-50
2021/08/11 03:06:12;;;;;;;0.68;0.68;;;22.40;53.50;;;;;;5118120;28;20051;-47
2021/08/11 03:08:38;;;;;;;0.98;0.85;;;22.40;53.50;;;;;;5118077;28;20411;-44
2021/08/11 03:11:08;;;;;;;1.00;0.90;;;22.40;53.50;;;;;;5118668;28;20050;-46
2021/08/11 03:13:35;;;;;;;0.70;0.70;;;22.40;53.60;;;;;;5118172;28;20102;-47
2021/08/11 03:16:01;;;;;;;0.80;0.70;;;22.40;53.50;;;;;;5118195;28;20051;-46
2021/08/11 03:18:27;;;;;;;0.80;0.80;;;22.40;53.60;;;;;;5116557;28;20054;-44
2021/08/11 03:20:58;;;;;;;0.80;0.80;;;22.30;53.50;;;;;;5118711;28;20047;-50
2021/08/11 03:23:24;;;;;;;0.90;0.90;;;22.40;53.60;;;;;;5136615;28;20383;-49
2021/08/11 03:25:49;;;;;;;1.08;0.90;;;22.30;53.60;;;;;;5101145;28;20149;-44
2021/08/11 03:28:15;;;;;;;0.90;0.90;;;22.30;53.60;;;;;;5118396;28;20046;-46
2021/08/11 03:30:42;;;;;;;0.93;0.93;;;22.30;53.60;;;;;;5116015;28;20059;-45
2021/08/11 03:33:08;;;;;;;0.60;0.60;;;22.30;53.60;;;;;;5118113;28;20043;-46
2021/08/11 03:35:34;;;;;;;0.73;0.73;;;22.30;53.60;;;;;;5118046;28;20043;-48
2021/08/11 03:38:00;;;;;;;0.70;0.70;;;22.30;53.70;;;;;;5118291;28;20043;-48
2021/08/11 03:40:27;;;;;;;0.70;0.70;;;22.30;53.60;;;;;;5117606;28;20093;-49
2021/08/11 03:42:53;;;;;;;0.88;0.88;;;22.30;53.70;;;;;;5117553;28;20071;-47
2021/08/11 03:45:21;;;;;;;1.15;0.77;;;22.30;53.80;;;;;;5117621;28;20059;-44
2021/08/11 03:47:48;;;;;;;0.75;0.73;;;22.30;53.80;;;;;;5118040;28;20051;-44
2021/08/11 03:50:16;;;;;;;0.95;0.85;;;22.30;53.80;;;;;;5118091;28;20402;-45
2021/08/11 03:52:45;;;;;;;0.70;0.70;;;22.30;53.80;;;;;;5117663;28;20402;-47
2021/08/11 03:55:13;;;;;;;0.77;0.77;;;22.30;53.80;;;;;;5117541;28;20097;-50
2021/08/11 03:57:40;;;;;;;0.70;0.70;;;22.30;53.80;;;;;;5100401;28;20110;-46
2021/08/11 04:00:07;;;;;;;1.00;0.90;;;22.20;53.80;;;;;;5116495;28;20047;-47
2021/08/11 04:02:40;;;;;;;1.23;0.90;;;22.20;53.80;;;;;;5135734;28;20141;-43
2021/08/11 04:05:07;;;;;;;0.70;0.70;;;22.20;53.80;;;;;;5135823;28;20087;-47
2021/08/11 04:07:35;;;;;;;0.50;0.50;;;22.30;53.90;;;;;;5135774;28;20478;-49
2021/08/11 04:10:03;;;;;;;0.75;0.65;;;22.30;53.90;;;;;;5135776;28;20054;-45
2021/08/11 04:12:29;;;;;;;0.80;0.80;;;22.20;53.90;;;;;;5115249;28;20055;-50
2021/08/11 04:14:54;;;;;;;0.85;0.70;;;22.20;53.90;;;;;;5135929;28;20063;-45
2021/08/11 04:17:20;;;;;;;0.63;0.63;;;22.20;53.90;;;;;;5135857;28;20055;-52
2021/08/11 04:19:46;;;;;;;1.00;0.80;;;22.20;53.90;;;;;;5135362;28;20414;-44
2021/08/11 04:22:11;;;;;;;0.88;0.80;;;22.20;53.90;;;;;;5135216;28;20487;-48
2021/08/11 04:24:37;;;;;;;0.80;0.80;;;22.20;53.90;;;;;;5115717;28;20043;-48
2021/08/11 04:27:02;;;;;;;0.70;0.70;;;22.20;53.90;;;;;;5135201;28;20051;-50
2021/08/11 04:29:28;;;;;;;0.80;0.80;;;22.30;54.00;;;;;;5135192;28;20517;-47
2021/08/11 04:31:53;;;;;;;0.80;0.80;;;22.30;53.90;;;;;;5135587;28;20515;-49
2021/08/11 04:34:20;;;;;;;0.60;0.60;;;22.30;53.80;;;;;;5135260;28;20055;-45
2021/08/11 04:36:45;;;;;;;0.80;0.80;;;22.30;53.80;;;;;;5135246;28;20043;-52
2021/08/11 04:39:10;;;;;;;1.02;0.93;;;22.30;53.70;;;;;;5135257;28;20057;-44
2021/08/11 04:41:36;;;;;;;0.93;0.90;;;22.40;53.70;;;;;;5135291;28;20111;-47
2021/08/11 04:44:03;;;;;;;0.68;0.68;;;22.40;53.60;;;;;;5135035;28;20058;-44
2021/08/11 04:46:28;;;;;;;0.70;0.70;;;22.50;53.60;;;;;;5135153;28;20050;-44
2021/08/11 04:48:54;;;;;;;0.63;0.63;;;22.50;53.50;;;;;;5116989;28;20387;-43
2021/08/11 04:51:21;;;;;;;0.70;0.70;;;22.50;53.40;;;;;;5135225;28;20076;-43
2021/08/11 04:53:46;;;;;;;0.80;0.80;;;22.60;53.40;;;;;;5134890;28;20050;-46
2021/08/11 04:56:11;;;;;;;1.00;0.90;;;22.60;53.40;;;;;;5135060;28;20051;-46
2021/08/11 04:58:37;;;;;;;1.27;0.70;;;22.60;53.30;;;;;;5134751;28;20403;-43
2021/08/11 05:01:03;;;;;;;0.98;0.90;;;22.60;53.30;;;;;;5135297;28;20139;-45
2021/08/11 05:03:33;;;;;;;0.77;0.77;;;22.60;53.20;;;;;;5135099;28;20051;-44
2021/08/11 05:05:58;;;;;;;0.60;0.60;;;22.70;53.20;;;;;;5135286;28;20058;-45
2021/08/11 05:08:24;;;;;;;0.80;0.77;;;22.70;53.10;;;;;;5134700;28;20043;-45
2021/08/11 05:10:49;;;;;;;0.85;0.80;;;22.70;53.00;;;;;;5134979;27;20102;-43
2021/08/11 05:13:15;;;;;;;0.70;0.70;;;22.80;53.00;;;;;;5134638;28;20070;-43
2021/08/11 05:15:40;;;;;;;0.80;0.80;;;22.80;52.90;;;;;;5135325;28;20053;-43
2021/08/11 05:18:07;;;;;;;1.05;0.95;;;22.90;52.80;;;;;;5134658;28;20414;-44
2021/08/11 05:20:32;;;;;;;0.85;0.85;;;22.90;52.80;;;;;;5134491;28;20047;-44
2021/08/11 05:22:58;;;;;;;0.90;0.85;;;22.90;52.70;;;;;;5116116;28;20039;-43
2021/08/11 05:25:23;;;;;;;0.70;0.70;;;23.00;52.60;;;;;;5134653;28;20057;-42
2021/08/11 05:27:49;;;;;;;0.80;0.73;;;23.00;52.60;;;;;;5134070;28;20452;-49
2021/08/11 05:30:14;;;;;;;0.70;0.70;;;23.10;52.50;;;;;;5134430;28;20150;-47
2021/08/11 05:32:40;;;;;;;0.70;0.70;;;23.10;52.40;;;;;;5134332;28;20047;-44
2021/08/11 05:35:06;;;;;;;0.70;0.70;;;23.20;52.30;;;;;;5134356;28;20047;-50
2021/08/11 05:37:33;;;;;;;0.90;0.80;;;23.20;52.20;;;;;;5134191;28;20051;-46
2021/08/11 05:40:00;;;;;;;0.80;0.80;;;23.30;52.20;;;;;;5134198;28;20046;-47
2021/08/11 05:42:27;;;;;;;1.77;0.60;;;23.30;52.10;;;;;;5134145;28;20055;-49
2021/08/11 05:44:54;;;;;;;0.77;0.70;;;23.40;52.00;;;;;;5134447;28;20509;-50
2021/08/11 05:47:19;;;;;;;0.60;0.60;;;23.40;51.90;;;;;;5134014;28;20059;-47
2021/08/11 05:49:45;;;;;;;0.60;0.60;;;23.40;51.80;;;;;;5133975;28;20062;-48
2021/08/11 05:52:11;;;;;;;0.70;0.70;;;23.40;51.70;;;;;;5133879;28;20558;-44
2021/08/11 05:54:37;;;;;;;0.80;0.80;;;23.40;51.70;;;;;;5134232;28;20390;-53
2021/08/11 05:57:03;;;;;;;1.33;0.90;;;23.50;51.70;;;;;;5133853;28;20051;-47
2021/08/11 05:59:29;;;;;;;1.00;0.90;;;23.60;52.20;;;;;;5133804;28;20089;-52
2021/08/11 06:01:55;;;;;;;1.02;1.00;;;23.60;51.50;;;;;;5133735;28;20103;-49
2021/08/11 06:04:22;;;;;;;1.30;0.90;;;23.70;51.40;;;;;;5134037;28;20145;-46
2021/08/11 06:06:48;;;;;;;1.27;0.70;;;23.70;51.30;;;;;;5133932;28;20047;-46
2021/08/11 06:09:14;;;;;;;1.30;1.02;;;23.80;51.20;;;;;;5133399;28;20070;-49
2021/08/11 06:11:40;;;;;;;1.25;0.90;;;23.80;51.00;;;;;;5133637;28;20047;-47
2021/08/11 06:14:05;;;;;;;0.70;0.70;;;23.90;51.00;;;;;;5133924;28;20054;-47
2021/08/11 06:16:31;;;;;;;2.28;1.10;;;24.00;50.90;;;;;;5114521;28;20048;-47
2021/08/11 06:18:57;;;;;;;0.75;0.75;;;24.00;50.80;;;;;;5134174;28;20184;-50
2021/08/11 06:21:24;;;;;;;1.05;0.73;;;24.00;50.70;;;;;;5133696;28;20074;-45
2021/08/11 06:23:53;;;;;;;1.15;1.05;;;24.10;50.60;;;;;;5133207;27;20571;-47
2021/08/11 06:26:19;;;;;;;0.98;0.75;;;24.20;50.50;;;;;;5133454;28;20051;-47
2021/08/11 06:28:45;;;;;;;1.77;0.80;;;24.20;50.40;;;;;;5133516;28;20055;-48
2021/08/11 06:31:14;;;;;;;1.10;0.73;;;24.20;50.20;;;;;;5133560;28;20396;-49
2021/08/11 06:33:40;;;;;;;1.83;0.82;;;24.30;50.10;;;;;;5113026;28;20399;-50
2021/08/11 06:36:05;;;;;;;0.70;0.70;;;24.40;50.10;;;;;;5133763;28;20059;-47
2021/08/11 06:38:31;;;;;;;2.30;0.85;;;24.40;49.90;;;;;;5133398;28;20051;-47
2021/08/11 06:40:56;;;;;;;1.30;0.93;;;24.50;49.80;;;;;;5133527;28;20522;-48
2021/08/11 06:43:22;;;;;;;0.90;0.80;;;24.50;49.70;;;;;;5133203;28;20051;-46
2021/08/11 06:45:47;;;;;;;2.80;0.75;;;24.60;49.60;;;;;;5113786;28;20054;-51
2021/08/11 06:48:13;;;;;;;0.80;0.80;;;24.60;49.50;;;;;;5112824;28;20142;-50
2021/08/11 06:50:40;;;;;;;8.38;1.38;;;24.70;49.50;;;;;;5114607;28;20039;-34
2021/08/11 06:53:05;;;;;;;3.08;1.00;;;24.80;50.70;;;;;;5133709;28;20044;-34
2021/08/11 06:55:31;;;;;;;1.45;1.10;;;25.20;49.50;;;;;;5133716;28;20091;-33
2021/08/11 06:57:57;;;;;;;14.95;1.88;;;25.50;48.80;;;;;;5114386;28;20058;-33
2021/08/11 07:00:22;;;;;;;24.75;2.97;;;25.80;49.20;;;;;;5114778;28;20055;-33
2021/08/11 07:02:48;;;;;;;16.38;1.85;;;26.00;52.80;;;;;;5132867;28;20059;-33
2021/08/11 07:05:13;;;;;;;13.40;1.90;;;26.20;52.10;;;;;;5132974;28;20090;-34
2021/08/11 07:07:39;;;;;;;13.43;1.98;;;26.30;52.10;;;;;;5133146;28;20487;-33
2021/08/11 07:10:08;;;;;;;14.15;1.90;;;26.30;51.90;;;;;;5132907;28;20457;-33
2021/08/11 07:12:33;;;;;;;16.98;1.80;;;26.40;51.30;;;;;;5132957;28;20047;-33
2021/08/11 07:14:59;;;;;;;10.25;1.95;;;26.50;51.30;;;;;;5132666;28;20058;-33
2021/08/11 07:17:25;;;;;;;10.77;2.25;;;26.60;51.40;;;;;;5132588;28;20070;-34
2021/08/11 07:19:51;;;;;;;6.78;1.50;;;26.60;51.30;;;;;;5133216;28;20058;-34
2021/08/11 07:22:19;;;;;;;10.18;1.90;;;26.70;51.20;;;;;;5133185;28;20141;-34
2021/08/11 07:24:45;;;;;;;7.75;1.92;;;26.70;51.00;;;;;;5132722;28;20047;-33
2021/08/11 07:27:11;;;;;;;7.15;1.70;;;26.70;50.80;;;;;;5132838;28;20100;-33
2021/08/11 07:29:36;;;;;;;11.45;1.73;;;26.80;50.50;;;;;;5132563;28;20051;-34
2021/08/11 07:32:02;;;;;;;5.43;1.60;;;26.80;50.40;;;;;;5113808;28;20047;-33
2021/08/11 07:34:27;;;;;;;11.98;1.90;;;26.90;50.30;;;;;;5114371;28;20052;-34
2021/08/11 07:36:53;;;;;;;4.90;1.75;;;26.90;50.00;;;;;;5135966;28;20047;-34
2021/08/11 07:39:19;;;;;;;12.70;1.65;;;26.90;49.90;;;;;;5136374;28;20082;-34
2021/08/11 07:41:44;;;;;;;7.63;1.50;;;26.90;49.70;;;;;;5136001;28;20099;-34
2021/08/11 07:44:10;;;;;;;8.05;1.70;;;27.00;49.60;;;;;;5136056;28;20406;-33
2021/08/11 07:46:35;;;;;;;10.95;1.58;;;27.00;49.50;;;;;;5135852;28;20051;-33
2021/08/11 07:49:01;;;;;;;5.20;1.67;;;27.00;49.30;;;;;;5135946;28;20051;-34
2021/08/11 07:51:27;;;;;;;11.60;1.90;;;27.00;49.20;;;;;;5135847;28;20043;-34
2021/08/11 07:53:53;;;;;;;10.35;1.40;;;27.10;49.10;;;;;;5135874;28;20045;-34
2021/08/11 07:56:19;;;;;;;7.65;1.92;;;27.10;48.90;;;;;;5135650;28;20139;-34
2021/08/11 07:58:45;;;;;;;3.53;1.50;;;27.20;48.70;;;;;;5135824;28;20086;-34
2021/08/11 08:01:10;;;;;;;4.43;1.20;;;27.10;48.70;;;;;;5135571;27;20542;-32
2021/08/11 08:03:36;;;;;;;7.03;1.38;;;27.00;48.80;;;;;;5135432;28;20116;-33
2021/08/11 08:06:02;;;;;;;6.30;1.40;;;26.90;48.90;;;;;;5135614;28;20047;-33
2021/08/11 08:08:27;;;;;;;7.65;1.73;;;27.00;48.90;;;;;;5135485;28;20051;-33
2021/08/11 08:10:53;;;;;;;6.78;1.33;;;27.00;48.70;;;;;;5135501;28;20146;-33
2021/08/11 08:13:20;;;;;;;3.40;1.40;;;27.00;48.60;;;;;;5135553;28;20042;-33
2021/08/11 08:15:48;;;;;;;7.55;1.50;;;27.00;48.60;;;;;;5135550;28;20499;-34
2021/08/11 08:18:14;;;;;;;9.88;1.83;;;27.00;48.40;;;;;;5135505;28;20059;-34
2021/08/11 08:20:39;;;;;;;6.43;1.40;;;27.10;48.20;;;;;;5135378;28;20047;-33
2021/08/11 08:23:05;;;;;;;3.95;1.88;;;27.20;48.00;;;;;;5135353;28;20129;-34
2021/08/11 08:25:31;;;;;;;8.75;1.73;;;27.30;47.90;;;;;;5135315;28;20147;-34
2021/08/11 08:27:56;;;;;;;6.57;1.63;;;27.30;47.70;;;;;;5135268;28;20478;-33
2021/08/11 08:30:22;;;;;;;6.22;1.45;;;27.40;47.50;;;;;;5135564;28;20055;-33
2021/08/11 08:32:51;;;;;;;3.10;1.05;;;27.50;47.40;;;;;;5135789;28;20091;-33
2021/08/11 08:35:16;;;;;;;3.63;1.50;;;27.50;47.20;;;;;;5135706;28;20497;-33
2021/08/11 08:37:42;;;;;;;11.02;1.60;;;27.50;47.00;;;;;;5134830;28;20406;-34
2021/08/11 08:40:10;;;;;;;5.47;1.23;;;27.50;47.00;;;;;;5135677;28;20051;-34
2021/08/11 08:42:37;;;;;;;5.13;1.27;;;27.50;46.90;;;;;;5134984;28;20137;-33
2021/08/11 08:45:04;;;;;;;7.57;1.33;;;27.50;47.00;;;;;;5116137;27;20626;-34
2021/08/11 08:47:32;;;;;;;2.20;1.13;;;27.40;47.10;;;;;;5134750;28;20071;-34
2021/08/11 08:50:00;;;;;;;5.53;1.25;;;27.40;47.20;;;;;;5135010;28;20055;-33
2021/08/11 08:52:27;;;;;;;3.15;1.15;;;27.30;47.10;;;;;;5134918;28;20119;-33
2021/08/11 08:54:57;;;;;;;6.07;1.48;;;27.30;47.00;;;;;;5134774;28;20058;-33
2021/08/11 08:57:23;;;;;;;4.38;1.20;;;27.40;47.00;;;;;;5135085;28;20142;-33
2021/08/11 08:59:51;;;;;;;7.72;1.48;;;27.40;46.80;;;;;;5134714;28;20509;-33
2021/08/11 09:02:16;;;;;;;1.67;1.10;;;27.40;46.90;;;;;;5134613;28;20082;-33
2021/08/11 09:04:42;;;;;;;2.05;1.25;;;27.20;47.00;;;;;;5134990;28;20131;-33
2021/08/11 09:07:19;;;;;;;3.08;1.17;;;27.10;47.10;;;;;;5134664;28;20051;-33
2021/08/11 09:09:45;;;;;;;6.43;1.15;;;27.00;47.40;;;;;;5134453;28;20111;-34
2021/08/11 09:12:21;;;;;;;4.72;1.20;;;26.90;47.60;;;;;;5134745;28;20055;-35
2021/08/11 09:14:48;;;;;;;2.10;1.00;;;26.80;47.60;;;;;;5134231;28;20074;-33
2021/08/11 09:17:44;;;;;;;2.60;1.30;;;26.80;47.70;;;;;;5115040;28;20052;-34
2021/08/11 09:20:20;;;;;;;4.80;1.20;;;26.80;47.70;;;;;;5116687;28;20051;-33
2021/08/11 09:22:47;;;;;;;2.35;1.05;;;26.80;47.60;;;;;;5134910;28;20096;-33
2021/08/11 09:25:13;;;;;;;1.35;0.98;;;26.80;47.60;;;;;;5134526;28;20047;-34
2021/08/11 09:27:40;;;;;;;3.58;1.40;;;26.80;47.60;;;;;;5133986;28;20082;-39
2021/08/11 09:30:17;;;;;;;3.20;1.10;;;26.70;48.10;;;;;;5134262;28;20137;-34
2021/08/11 09:33:00;;;;;;;5.47;1.10;;;26.80;47.60;;;;;;5134276;28;20123;-34
2021/08/11 09:35:32;;;;;;;2.78;1.23;;;26.70;47.60;;;;;;5134152;28;20440;-34
2021/08/11 09:38:08;;;;;;;2.25;1.40;;;26.70;47.60;;;;;;5134036;28;20082;-35
2021/08/11 09:40:38;;;;;;;2.88;1.10;;;26.70;47.60;;;;;;5134308;28;20050;-34
2021/08/11 09:43:06;;;;;;;2.78;1.05;;;26.70;47.50;;;;;;5133841;28;20058;-34
2021/08/11 09:45:49;;;;;;;3.63;0.95;;;26.70;47.50;;;;;;5134022;28;20062;-34
2021/08/11 09:48:20;;;;;;;1.73;0.90;;;26.80;47.40;;;;;;5134140;28;20050;-34
2021/08/11 09:51:03;;;;;;;2.35;1.00;;;26.80;47.30;;;;;;5134593;28;20058;-34
2021/08/11 09:53:28;;;;;;;1.67;1.00;;;26.90;47.10;;;;;;5133944;28;20055;-34
2021/08/11 09:55:54;;;;;;;1.58;1.00;;;27.00;47.00;;;;;;5134001;28;20054;-34
2021/08/11 09:58:20;;;;;;;2.28;1.15;;;27.00;46.90;;;;;;5132871;27;20134;-34
2021/08/11 10:00:45;;;;;;;1.33;0.85;;;27.00;46.80;;;;;;5114201;28;20046;-34
2021/08/11 10:03:11;;;;;;;4.57;0.98;;;27.00;46.80;;;;;;5133636;28;20111;-34
2021/08/11 10:05:37;;;;;;;1.45;0.90;;;27.00;46.80;;;;;;5114373;28;20139;-34
2021/08/11 10:08:04;;;;;;;3.30;1.27;;;27.00;46.80;;;;;;5133751;28;20051;-34
2021/08/11 10:10:49;;;;;;;1.52;0.90;;;27.00;46.70;;;;;;5133788;28;20075;-34
2021/08/11 10:13:21;;;;;;;1.77;1.10;;;27.00;46.70;;;;;;5133667;28;20036;-34
2021/08/11 10:15:47;;;;;;;3.15;1.15;;;27.00;46.70;;;;;;5133582;28;20047;-34
2021/08/11 10:18:17;;;;;;;1.58;0.95;;;27.00;46.60;;;;;;5133621;28;20051;-34
2021/08/11 10:20:46;;;;;;;1.45;0.80;;;27.10;46.50;;;;;;5133617;28;20051;-34
2021/08/11 10:23:15;;;;;;;4.88;1.02;;;27.10;46.50;;;;;;5133430;28;20074;-34
2021/08/11 10:25:41;;;;;;;3.28;0.93;;;27.10;46.40;;;;;;5134146;28;20097;-34
2021/08/11 10:28:07;;;;;;;2.47;1.00;;;27.10;46.40;;;;;;5133418;28;20079;-34
2021/08/11 10:30:33;;;;;;;1.75;0.90;;;27.10;46.40;;;;;;5133756;28;20059;-34
2021/08/11 10:33:01;;;;;;;1.73;0.82;;;27.10;46.30;;;;;;5134041;28;20039;-34
2021/08/11 10:35:28;;;;;;;2.17;1.02;;;27.10;46.30;;;;;;5133614;28;20061;-34
2021/08/11 10:37:56;;;;;;;1.40;0.82;;;27.10;46.20;;;;;;5133816;28;20099;-34
2021/08/11 10:40:22;;;;;;;3.60;1.17;;;27.20;46.30;;;;;;5133428;28;20402;-32
2021/08/11 10:42:56;;;;;;;2.90;1.02;;;27.20;46.20;;;;;;5133791;28;20043;-33
2021/08/11 10:45:25;;;;;;;1.20;0.80;;;27.10;46.20;;;;;;5133565;28;20055;-33
2021/08/11 10:47:51;;;;;;;3.92;1.15;;;27.00;46.30;;;;;;5133490;28;20494;-33
2021/08/11 10:50:17;;;;;;;2.92;1.00;;;27.00;46.40;;;;;;5133136;28;20095;-33
2021/08/11 10:52:43;;;;;;;1.60;0.95;;;27.00;46.50;;;;;;5133145;28;20130;-33
2021/08/11 10:55:09;;;;;;;1.60;0.90;;;27.00;46.50;;;;;;5133182;28;20051;-33
2021/08/11 10:57:35;;;;;;;2.92;0.90;;;26.90;46.40;;;;;;5132732;28;20058;-33
2021/08/11 11:00:07;;;;;;;2.17;1.10;;;27.00;46.50;;;;;;5133099;28;20054;-33
2021/08/11 11:02:43;;;;;;;1.50;0.70;;;27.00;46.40;;;;;;5113984;28;20060;-33
2021/08/11 11:05:15;;;;;;;0.82;0.82;;;26.90;47.00;;;;;;5133076;28;20397;-33
2021/08/11 11:07:40;;;;;;;1.02;0.80;;;26.90;46.40;;;;;;5114832;28;20058;-33
2021/08/11 11:10:26;;;;;;;1.63;1.00;;;27.00;46.40;;;;;;5136580;27;20051;-33
2021/08/11 11:12:52;;;;;;;1.92;0.80;;;27.00;46.20;;;;;;5136905;28;20039;-33
2021/08/11 11:15:39;;;;;;;2.20;0.90;;;27.10;46.00;;;;;;5136599;28;20054;-33
2021/08/11 11:18:10;;;;;;;1.50;1.00;;;27.20;46.00;;;;;;5117362;28;20066;-33
2021/08/11 11:20:36;;;;;;;2.65;1.10;;;27.20;46.00;;;;;;5136470;28;20063;-33
2021/08/11 11:23:05;;;;;;;1.13;0.80;;;27.10;45.90;;;;;;5136290;28;20050;-33
2021/08/11 11:26:05;;;;;;;1.35;0.90;;;27.20;45.90;;;;;;5136467;28;20418;-34
2021/08/11 11:29:09;;;;;;;1.63;0.80;;;27.20;45.90;;;;;;5136278;28;20047;-33
2021/08/11 11:31:44;;;;;;;0.80;0.73;;;27.10;46.00;;;;;;5136310;28;20444;-33
2021/08/11 11:34:23;;;;;;;3.05;0.90;;;27.00;46.10;;;;;;5136486;28;20124;-33
2021/08/11 11:36:54;;;;;;;3.05;1.00;;;27.00;46.20;;;;;;5136429;28;20054;-34
2021/08/11 11:39:22;;;;;;;3.00;1.02;;;27.00;46.30;;;;;;5136176;28;20050;-33
2021/08/11 11:42:06;;;;;;;1.45;0.90;;;27.00;46.10;;;;;;5136191;28;20490;-33
2021/08/11 11:44:53;;;;;;;1.67;0.77;;;27.10;45.90;;;;;;5136517;28;20055;-33
2021/08/11 11:47:46;;;;;;;3.40;1.00;;;27.20;45.80;;;;;;5136108;28;20376;-33
2021/08/11 11:50:21;;;;;;;1.73;0.90;;;27.30;45.70;;;;;;5135834;28;20054;-33
2021/08/11 11:52:50;;;;;;;1.52;1.00;;;27.30;45.60;;;;;;5135969;28;20039;-33
2021/08/11 11:55:45;;;;;;;2.70;0.80;;;27.40;45.50;;;;;;5135831;28;20058;-33
2021/08/11 11:58:25;;;;;;;0.80;0.70;;;27.30;45.60;;;;;;5118045;28;20063;-33
2021/08/11 12:01:02;;;;;;;1.15;0.80;;;27.20;45.60;;;;;;5135922;28;20139;-35
2021/08/11 12:03:43;;;;;;;1.13;0.80;;;27.30;45.60;;;;;;5135767;28;20399;-34
2021/08/11 12:06:09;;;;;;;1.23;1.00;;;27.30;45.60;;;;;;5135902;28;20055;-34
2021/08/11 12:08:36;;;;;;;3.50;0.98;;;27.20;45.50;;;;;;5135776;28;20059;-34
2021/08/11 12:11:09;;;;;;;1.08;0.80;;;27.20;45.60;;;;;;5135569;28;20526;-34
2021/08/11 12:13:49;;;;;;;1.50;1.00;;;27.30;45.90;;;;;;5136019;28;20078;-34
2021/08/11 12:16:18;;;;;;;0.87;0.80;;;27.30;45.40;;;;;;5135205;28;20047;-34
2021/08/11 12:18:47;;;;;;;0.98;0.80;;;27.30;45.40;;;;;;5135863;28;20102;-34
2021/08/11 12:21:14;;;;;;;0.80;0.80;;;27.30;45.40;;;;;;5135258;27;20074;-34
2021/08/11 12:23:40;;;;;;;0.88;0.70;;;27.30;45.50;;;;;;5135395;28;20141;-34
2021/08/11 12:26:16;;;;;;;1.45;0.88;;;27.20;45.50;;;;;;5135514;28;20066;-34
2021/08/11 12:28:49;;;;;;;1.42;0.98;;;27.20;45.60;;;;;;5135118;28;20047;-34
2021/08/11 12:31:22;;;;;;;1.17;0.82;;;27.10;45.70;;;;;;5135321;28;20047;-34
2021/08/11 12:33:49;;;;;;;1.90;0.85;;;27.10;45.80;;;;;;5135166;28;20043;-33
2021/08/11 12:36:21;;;;;;;1.58;0.77;;;27.00;45.80;;;;;;5135182;28;20051;-33
2021/08/11 12:39:07;;;;;;;1.25;0.70;;;27.00;45.80;;;;;;5135568;28;20050;-33
2021/08/11 12:41:35;;;;;;;1.00;0.90;;;27.10;45.80;;;;;;5134969;28;20426;-33
2021/08/11 12:44:20;;;;;;;1.48;0.70;;;27.10;45.70;;;;;;5135023;28;20051;-33
2021/08/11 12:46:48;;;;;;;1.77;0.88;;;27.10;45.60;;;;;;5135252;28;20055;-33
2021/08/11 12:49:14;;;;;;;1.55;0.95;;;27.10;45.60;;;;;;5135465;28;20051;-34
2021/08/11 12:51:40;;;;;;;0.70;0.70;;;27.10;45.60;;;;;;5135077;28;20078;-34
2021/08/11 12:54:07;;;;;;;0.85;0.85;;;27.20;45.60;;;;;;5134901;28;20047;-32
2021/08/11 12:56:52;;;;;;;0.80;0.80;;;27.20;45.50;;;;;;5134682;28;20430;-34